createdAt,value
2018-09-19T00:00:53.293Z,0.19
2018-09-19T00:01:53.266Z,0.00
2018-09-19T00:02:53.240Z,0.00
2018-09-19T00:03:53.218Z,0.00
2018-09-19T00:04:53.193Z,0.00
2018-09-19T00:05:53.164Z,0.00
2018-09-19T00:06:53.136Z,0.00
2018-09-19T00:07:53.110Z,0.00
2018-09-19T00:08:53.081Z,0.00
2018-09-19T00:09:53.058Z,0.00
2018-09-19T00:10:53.030Z,0.00
2018-09-19T00:11:53.004Z,0.00
2018-09-19T00:12:52.978Z,0.00
2018-09-19T00:13:52.952Z,0.00
2018-09-19T00:14:52.927Z,0.00
2018-09-19T00:15:52.949Z,0.00
2018-09-19T00:16:52.872Z,0.00
2018-09-19T00:17:52.850Z,0.00
2018-09-19T00:18:52.821Z,0.00
2018-09-19T00:19:52.795Z,0.00
2018-09-19T00:20:52.768Z,0.00
2018-09-19T00:21:52.790Z,0.00
2018-09-19T00:22:52.715Z,0.00
2018-09-19T00:23:52.687Z,0.00
2018-09-19T00:24:52.662Z,0.00
2018-09-19T00:25:52.636Z,0.00
2018-09-19T00:26:52.608Z,0.00
2018-09-19T00:27:52.581Z,0.00
2018-09-19T00:28:52.558Z,0.00
2018-09-19T00:29:52.529Z,0.00
2018-09-19T00:30:52.501Z,0.00
2018-09-19T00:31:52.476Z,0.00
2018-09-19T00:32:52.451Z,0.00
2018-09-19T00:33:52.423Z,0.00
2018-09-19T00:34:52.395Z,0.00
2018-09-19T00:35:52.371Z,0.00
2018-09-19T00:36:52.344Z,0.00
2018-09-19T00:37:52.317Z,0.00
2018-09-19T00:38:52.289Z,0.00
2018-09-19T00:39:52.271Z,0.00
2018-09-19T00:40:52.269Z,0.00
2018-09-19T00:41:52.209Z,0.00
2018-09-19T00:42:52.185Z,0.00
2018-09-19T00:43:52.158Z,0.00
2018-09-19T00:44:52.131Z,0.00
2018-09-19T00:45:52.104Z,0.00
2018-09-19T00:46:52.077Z,0.00
2018-09-19T00:47:52.050Z,0.00
2018-09-19T00:48:52.021Z,0.00
2018-09-19T00:49:51.996Z,0.00
2018-09-19T00:50:52.038Z,0.00
2018-09-19T00:51:51.941Z,0.00
2018-09-19T00:52:51.916Z,0.00
2018-09-19T00:53:51.893Z,0.00
2018-09-19T00:54:51.864Z,0.00
2018-09-19T00:55:51.836Z,0.00
2018-09-19T00:56:51.811Z,0.00
2018-09-19T00:57:51.793Z,0.00
2018-09-19T00:58:51.752Z,0.00
2018-09-19T00:59:51.726Z,0.00
2018-09-19T01:00:51.701Z,0.00
2018-09-19T01:01:51.673Z,0.00
2018-09-19T01:02:51.646Z,0.00
2018-09-19T01:03:51.694Z,0.00
2018-09-19T01:04:51.592Z,0.00
2018-09-19T01:05:51.565Z,0.00
2018-09-19T01:06:51.536Z,0.00
2018-09-19T01:07:51.510Z,0.00
2018-09-19T01:08:51.491Z,0.00
2018-09-19T01:09:51.458Z,0.00
2018-09-19T01:10:51.429Z,0.00
2018-09-19T01:11:51.404Z,0.00
2018-09-19T01:12:51.375Z,0.00
2018-09-19T01:13:51.348Z,0.00
2018-09-19T01:14:51.326Z,0.00
2018-09-19T01:15:51.293Z,0.00
2018-09-19T01:16:51.266Z,0.00
2018-09-19T01:17:51.240Z,0.00
2018-09-19T01:18:51.212Z,0.00
2018-09-19T01:19:51.184Z,0.00
2018-09-19T01:20:51.159Z,0.00
2018-09-19T01:21:51.131Z,0.00
2018-09-19T01:22:51.104Z,0.00
2018-09-19T01:23:51.079Z,0.00
2018-09-19T01:24:51.049Z,0.00
2018-09-19T01:25:51.023Z,0.00
2018-09-19T01:26:51.000Z,0.00
2018-09-19T01:27:50.969Z,0.00
2018-09-19T01:28:50.941Z,0.00
2018-09-19T01:29:50.915Z,0.00
2018-09-19T01:30:50.890Z,0.00
2018-09-19T01:31:50.940Z,0.00
2018-09-19T01:32:50.833Z,0.00
2018-09-19T01:33:50.807Z,0.00
2018-09-19T01:34:50.781Z,0.00
2018-09-19T01:35:50.756Z,0.00
2018-09-19T01:36:50.726Z,0.00
2018-09-19T01:37:50.698Z,0.00
2018-09-19T01:38:50.672Z,0.00
2018-09-19T01:39:50.644Z,0.00
2018-09-19T01:40:50.616Z,0.00
2018-09-19T01:41:50.589Z,0.00
2018-09-19T01:42:50.561Z,0.00
2018-09-19T01:43:50.532Z,0.00
2018-09-19T01:44:50.511Z,0.00
2018-09-19T01:45:50.480Z,0.00
2018-09-19T01:46:50.454Z,0.00
2018-09-19T01:47:50.427Z,0.00
2018-09-19T01:48:50.397Z,0.00
2018-09-19T01:49:50.371Z,0.00
2018-09-19T01:50:50.343Z,0.00
2018-09-19T01:51:50.316Z,0.00
2018-09-19T01:52:50.294Z,0.00
2018-09-19T01:53:50.260Z,0.00
2018-09-19T01:54:50.233Z,0.00
2018-09-19T01:55:50.205Z,0.00
2018-09-19T01:56:50.185Z,0.00
2018-09-19T01:57:50.155Z,0.00
2018-09-19T01:58:50.135Z,0.00
2018-09-19T01:59:50.097Z,0.00
2018-09-19T02:00:50.075Z,0.00
2018-09-19T02:01:50.043Z,0.00
2018-09-19T02:02:50.015Z,0.00
2018-09-19T02:03:49.986Z,0.00
2018-09-19T02:04:49.959Z,0.00
2018-09-19T02:05:49.935Z,0.00
2018-09-19T02:06:49.905Z,0.00
2018-09-19T02:07:49.878Z,0.00
2018-09-19T02:08:49.850Z,0.00
2018-09-19T02:09:49.822Z,0.00
2018-09-19T02:10:49.797Z,0.00
2018-09-19T02:11:49.768Z,0.00
2018-09-19T02:12:49.740Z,0.00
2018-09-19T02:13:49.714Z,0.00
2018-09-19T02:14:49.694Z,0.00
2018-09-19T02:15:49.660Z,0.00
2018-09-19T02:16:49.632Z,0.00
2018-09-19T02:17:49.604Z,0.00
2018-09-19T02:18:49.577Z,0.00
2018-09-19T02:19:49.549Z,0.00
2018-09-19T02:20:49.524Z,0.00
2018-09-19T02:21:49.496Z,0.00
2018-09-19T02:22:49.470Z,0.00
2018-09-19T02:23:49.441Z,0.00
2018-09-19T02:24:49.413Z,0.00
2018-09-19T02:25:49.387Z,0.00
2018-09-19T02:26:49.357Z,0.00
2018-09-19T02:27:49.328Z,0.00
2018-09-19T02:28:49.304Z,0.00
2018-09-19T02:29:49.276Z,0.00
2018-09-19T02:30:49.247Z,0.00
2018-09-19T02:31:49.256Z,0.00
2018-09-19T02:32:49.194Z,0.00
2018-09-19T02:33:49.167Z,0.00
2018-09-19T02:34:49.139Z,0.00
2018-09-19T02:35:49.111Z,0.00
2018-09-19T02:36:49.087Z,0.00
2018-09-19T02:37:49.055Z,0.00
2018-09-19T02:38:49.030Z,0.00
2018-09-19T02:39:49.000Z,0.00
2018-09-19T02:40:48.975Z,0.00
2018-09-19T02:41:48.946Z,0.00
2018-09-19T02:42:48.916Z,0.00
2018-09-19T02:43:48.893Z,0.00
2018-09-19T02:44:48.863Z,0.00
2018-09-19T02:45:48.840Z,0.00
2018-09-19T02:46:48.809Z,0.00
2018-09-19T02:47:48.862Z,0.00
2018-09-19T02:48:48.752Z,0.00
2018-09-19T02:49:48.725Z,0.00
2018-09-19T02:50:48.698Z,0.00
2018-09-19T02:51:48.671Z,0.00
2018-09-19T02:52:48.649Z,0.00
2018-09-19T02:53:48.619Z,0.00
2018-09-19T02:54:48.590Z,0.00
2018-09-19T02:55:48.562Z,0.00
2018-09-19T02:56:48.537Z,0.00
2018-09-19T02:57:48.507Z,0.00
2018-09-19T02:58:48.482Z,0.00
2018-09-19T02:59:48.453Z,0.00
2018-09-19T03:00:48.426Z,0.00
2018-09-19T03:01:48.396Z,0.00
2018-09-19T03:02:48.403Z,0.00
2018-09-19T03:03:48.340Z,0.00
2018-09-19T03:04:48.323Z,0.00
2018-09-19T03:05:48.288Z,0.00
2018-09-19T03:06:48.260Z,0.00
2018-09-19T03:07:48.239Z,0.00
2018-09-19T03:08:48.205Z,0.00
2018-09-19T03:09:48.183Z,0.00
2018-09-19T03:10:48.158Z,0.00
2018-09-19T03:11:48.122Z,0.00
2018-09-19T03:12:48.100Z,0.00
2018-09-19T03:13:48.068Z,0.00
2018-09-19T03:14:48.038Z,0.00
2018-09-19T03:15:48.015Z,0.00
2018-09-19T03:16:47.986Z,0.00
2018-09-19T03:17:48.211Z,0.00
2018-09-19T03:18:47.928Z,0.00
2018-09-19T03:19:47.900Z,0.00
2018-09-19T03:20:47.876Z,0.00
2018-09-19T03:21:47.845Z,0.00
2018-09-19T03:22:47.848Z,0.00
2018-09-19T03:23:47.800Z,0.00
2018-09-19T03:24:47.763Z,0.00
2018-09-19T03:25:47.737Z,0.00
2018-09-19T03:26:47.736Z,0.00
2018-09-19T03:27:47.680Z,0.00
2018-09-19T03:28:47.656Z,0.00
2018-09-19T03:29:47.627Z,0.00
2018-09-19T03:30:47.598Z,0.00
2018-09-19T03:31:47.570Z,0.00
2018-09-19T03:32:47.542Z,0.00
2018-09-19T03:33:47.514Z,0.00
2018-09-19T03:34:47.488Z,0.00
2018-09-19T03:35:47.460Z,0.00
2018-09-19T03:36:47.431Z,0.00
2018-09-19T03:37:47.406Z,0.00
2018-09-19T03:38:47.377Z,0.00
2018-09-19T03:39:47.348Z,0.00
2018-09-19T03:40:47.324Z,0.00
2018-09-19T03:41:47.297Z,0.00
2018-09-19T03:42:47.264Z,0.00
2018-09-19T03:43:47.236Z,0.00
2018-09-19T03:44:47.214Z,0.00
2018-09-19T03:45:47.184Z,0.00
2018-09-19T03:46:47.152Z,0.00
2018-09-19T03:47:47.132Z,0.00
2018-09-19T03:48:47.099Z,0.00
2018-09-19T03:49:47.071Z,0.00
2018-09-19T03:50:47.042Z,0.00
2018-09-19T03:51:47.015Z,0.00
2018-09-19T03:52:46.987Z,0.00
2018-09-19T03:53:46.963Z,0.00
2018-09-19T03:54:46.932Z,0.00
2018-09-19T03:55:46.906Z,0.00
2018-09-19T03:56:46.876Z,0.00
2018-09-19T03:57:46.848Z,0.00
2018-09-19T03:58:46.820Z,0.00
2018-09-19T03:59:46.793Z,0.00
2018-09-19T04:00:46.770Z,0.00
2018-09-19T04:01:46.740Z,0.00
2018-09-19T04:02:46.709Z,0.00
2018-09-19T04:03:46.695Z,0.00
2018-09-19T04:04:46.655Z,0.00
2018-09-19T04:05:46.628Z,0.00
2018-09-19T04:06:46.599Z,0.00
2018-09-19T04:07:46.571Z,0.00
2018-09-19T04:08:46.545Z,0.00
2018-09-19T04:09:46.517Z,0.00
2018-09-19T04:10:46.488Z,0.00
2018-09-19T04:11:46.461Z,0.00
2018-09-19T04:12:46.432Z,0.00
2018-09-19T04:13:46.406Z,0.00
2018-09-19T04:14:46.381Z,0.00
2018-09-19T04:15:46.351Z,0.00
2018-09-19T04:16:46.326Z,0.00
2018-09-19T04:17:46.377Z,0.00
2018-09-19T04:18:46.269Z,0.00
2018-09-19T04:19:46.245Z,0.00
2018-09-19T04:20:46.218Z,0.00
2018-09-19T04:21:46.185Z,0.00
2018-09-19T04:22:46.156Z,0.00
2018-09-19T04:23:46.134Z,0.00
2018-09-19T04:24:46.102Z,0.00
2018-09-19T04:25:46.073Z,0.00
2018-09-19T04:26:46.045Z,0.00
2018-09-19T04:27:46.020Z,0.00
2018-09-19T04:28:45.992Z,0.00
2018-09-19T04:29:45.967Z,0.00
2018-09-19T04:30:45.936Z,0.00
2018-09-19T04:31:45.909Z,0.00
2018-09-19T04:32:45.882Z,0.00
2018-09-19T04:33:45.857Z,0.00
2018-09-19T04:34:45.825Z,0.00
2018-09-19T04:35:45.798Z,0.00
2018-09-19T04:36:45.770Z,0.00
2018-09-19T04:37:45.744Z,0.00
2018-09-19T04:38:45.715Z,0.00
2018-09-19T04:39:45.685Z,0.00
2018-09-19T04:40:45.663Z,0.00
2018-09-19T04:41:45.632Z,0.00
2018-09-19T04:42:45.603Z,0.00
2018-09-19T04:43:45.583Z,0.00
2018-09-19T04:44:45.550Z,0.00
2018-09-19T04:45:45.524Z,0.00
2018-09-19T04:46:45.496Z,0.00
2018-09-19T04:47:45.464Z,0.00
2018-09-19T04:48:45.437Z,0.00
2018-09-19T04:49:45.412Z,0.00
2018-09-19T04:50:45.385Z,0.00
2018-09-19T04:51:45.356Z,0.00
2018-09-19T04:52:45.332Z,0.00
2018-09-19T04:53:45.304Z,0.00
2018-09-19T04:54:45.271Z,0.00
2018-09-19T04:55:45.244Z,0.00
2018-09-19T04:56:45.218Z,0.00
2018-09-19T04:57:45.188Z,0.00
2018-09-19T04:58:45.160Z,0.00
2018-09-19T04:59:45.133Z,0.00
2018-09-19T05:00:53.027Z,0.00
2018-09-19T05:02:38.426Z,0.00
2018-09-19T05:03:38.377Z,0.00
2018-09-19T05:05:31.228Z,0.00
2018-09-19T05:06:31.157Z,0.00
2018-09-19T05:08:24.260Z,0.00
2018-09-19T05:09:24.224Z,0.00
2018-09-19T05:11:17.073Z,0.00
2018-09-19T05:12:17.002Z,0.00
2018-09-19T05:14:10.308Z,0.00
2018-09-19T05:15:10.273Z,0.00
2018-09-19T05:17:03.105Z,0.00
2018-09-19T05:18:03.053Z,0.00
2018-09-19T05:19:56.387Z,0.00
2018-09-19T05:20:56.330Z,0.00
2018-09-19T05:22:49.136Z,0.00
2018-09-19T05:23:49.103Z,0.00
2018-09-19T05:25:41.945Z,0.00
2018-09-19T05:26:42.516Z,0.00
2018-09-19T05:28:38.303Z,0.00
2018-09-19T05:29:35.157Z,0.00
2018-09-19T05:31:28.489Z,0.00
2018-09-19T05:32:28.428Z,0.00
2018-09-19T05:33:28.404Z,0.00
2018-09-19T05:34:28.374Z,0.00
2018-09-19T05:35:28.346Z,0.00
2018-09-19T05:36:28.318Z,0.00
2018-09-19T05:37:28.292Z,0.00
2018-09-19T05:38:28.272Z,0.00
2018-09-19T05:39:28.234Z,0.00
2018-09-19T05:40:28.217Z,0.00
2018-09-19T05:41:28.182Z,0.00
2018-09-19T05:42:28.157Z,0.00
2018-09-19T05:43:28.131Z,0.00
2018-09-19T05:44:28.106Z,0.00
2018-09-19T05:45:28.075Z,0.00
2018-09-19T05:46:28.061Z,0.00
2018-09-19T05:47:28.023Z,0.00
2018-09-19T05:48:27.998Z,0.00
2018-09-19T05:49:27.967Z,0.00
2018-09-19T05:50:27.945Z,0.00
2018-09-19T05:51:27.932Z,0.00
2018-09-19T05:52:27.895Z,0.00
2018-09-19T05:53:27.863Z,0.00
2018-09-19T05:54:27.850Z,0.00
2018-09-19T05:55:27.815Z,0.00
2018-09-19T05:56:27.782Z,0.00
2018-09-19T05:57:27.756Z,0.00
2018-09-19T05:58:27.730Z,0.00
2018-09-19T05:59:27.703Z,0.00
2018-09-19T06:00:27.681Z,0.00
2018-09-19T06:01:27.658Z,0.00
2018-09-19T06:02:27.627Z,0.00
2018-09-19T06:03:27.603Z,0.00
2018-09-19T06:04:27.575Z,0.00
2018-09-19T06:05:27.546Z,0.00
2018-09-19T06:06:27.519Z,0.00
2018-09-19T06:07:27.495Z,0.00
2018-09-19T06:08:27.471Z,0.00
2018-09-19T06:09:27.444Z,0.00
2018-09-19T06:10:27.417Z,0.00
2018-09-19T06:11:27.398Z,0.00
2018-09-19T06:12:27.365Z,0.00
2018-09-19T06:13:27.342Z,0.00
2018-09-19T06:14:27.312Z,0.00
2018-09-19T06:15:27.288Z,0.00
2018-09-19T06:16:27.262Z,0.00
2018-09-19T06:17:27.240Z,0.00
2018-09-19T06:18:27.212Z,0.00
2018-09-19T06:19:27.184Z,0.00
2018-09-19T06:20:27.158Z,0.38
2018-09-19T06:21:27.167Z,0.96
2018-09-19T06:22:27.106Z,0.86
2018-09-19T06:23:27.081Z,1.34
2018-09-19T06:24:27.060Z,0.48
2018-09-19T06:25:27.058Z,0.00
2018-09-19T06:26:27.004Z,0.86
2018-09-19T06:27:26.978Z,0.09
2018-09-19T06:28:26.953Z,0.00
2018-09-19T06:29:26.929Z,0.00
2018-09-19T06:30:26.898Z,0.00
2018-09-19T06:31:26.879Z,0.00
2018-09-19T06:32:26.850Z,0.00
2018-09-19T06:33:26.883Z,0.00
2018-09-19T06:34:26.817Z,0.00
2018-09-19T06:35:26.773Z,0.00
2018-09-19T06:36:26.750Z,0.00
2018-09-19T06:37:26.722Z,0.00
2018-09-19T06:38:26.706Z,0.00
2018-09-19T06:39:26.676Z,0.00
2018-09-19T06:40:26.747Z,0.00
2018-09-19T06:41:26.621Z,0.00
2018-09-19T06:42:26.591Z,0.00
2018-09-19T06:43:26.570Z,0.00
2018-09-19T06:44:26.547Z,0.00
2018-09-19T06:45:26.530Z,0.00
2018-09-19T06:46:26.494Z,0.00
2018-09-19T06:47:26.466Z,0.00
2018-09-19T06:48:26.442Z,0.00
2018-09-19T06:49:26.416Z,0.00
2018-09-19T06:50:26.388Z,0.00
2018-09-19T06:51:26.361Z,0.00
2018-09-19T06:52:26.383Z,0.00
2018-09-19T06:53:26.311Z,0.00
2018-09-19T06:54:26.286Z,0.00
2018-09-19T06:55:26.258Z,0.00
2018-09-19T06:56:26.234Z,0.00
2018-09-19T06:57:26.208Z,0.00
2018-09-19T06:58:26.181Z,0.00
2018-09-19T06:59:26.159Z,0.00
2018-09-19T07:00:26.139Z,0.00
2018-09-19T07:01:26.110Z,0.00
2018-09-19T07:02:26.074Z,0.00
2018-09-19T07:03:26.054Z,0.00
2018-09-19T07:04:26.029Z,0.00
2018-09-19T07:05:26.002Z,0.00
2018-09-19T07:06:25.975Z,0.00
2018-09-19T07:07:25.951Z,0.00
2018-09-19T07:08:25.923Z,0.48
2018-09-19T07:09:25.895Z,2.01
2018-09-19T07:10:25.893Z,2.50
2018-09-19T07:11:25.846Z,3.64
2018-09-19T07:12:25.822Z,3.74
2018-09-19T07:13:25.799Z,4.61
2018-09-19T07:14:25.796Z,7.01
2018-09-19T07:15:25.747Z,10.28
2018-09-19T07:16:25.723Z,11.62
2018-09-19T07:17:26.582Z,15.56
2018-09-19T07:18:25.694Z,16.52
2018-09-19T07:19:25.646Z,17.49
2018-09-19T07:20:25.622Z,17.49
2018-09-19T07:21:25.591Z,17.68
2018-09-19T07:22:25.569Z,18.06
2018-09-19T07:23:25.552Z,20.67
2018-09-19T07:24:25.517Z,20.67
2018-09-19T07:25:25.495Z,20.28
2018-09-19T07:26:25.474Z,19.61
2018-09-19T07:27:25.446Z,22.69
2018-09-19T07:28:25.420Z,22.97
2018-09-19T07:29:25.394Z,22.78
2018-09-19T07:30:25.372Z,23.84
2018-09-19T07:31:25.346Z,25.38
2018-09-19T07:32:25.320Z,26.43
2018-09-19T07:33:25.300Z,28.26
2018-09-19T07:34:26.090Z,27.97
2018-09-19T07:35:25.247Z,29.51
2018-09-19T07:36:25.234Z,30.77
2018-09-19T07:37:25.205Z,33.75
2018-09-19T07:38:25.177Z,32.79
2018-09-19T07:39:25.152Z,32.41
2018-09-19T07:40:25.160Z,34.91
2018-09-19T07:41:25.106Z,36.85
2018-09-19T07:42:25.077Z,39.36
2018-09-19T07:43:25.049Z,38.39
2018-09-19T07:44:25.030Z,38.29
2018-09-19T07:45:25.007Z,38.87
2018-09-19T07:46:25.022Z,40.41
2018-09-19T07:47:25.590Z,39.45
2018-09-19T07:48:24.941Z,42.14
2018-09-19T07:49:24.916Z,45.13
2018-09-19T07:50:24.891Z,44.84
2018-09-19T07:51:24.866Z,45.22
2018-09-19T07:52:24.842Z,45.80
2018-09-19T07:53:24.817Z,45.61
2018-09-19T07:54:24.799Z,46.28
2018-09-19T07:55:24.816Z,45.32
2018-09-19T07:56:24.757Z,45.70
2018-09-19T07:57:24.727Z,45.99
2018-09-19T07:58:24.700Z,47.46
2018-09-19T07:59:24.677Z,47.85
2018-09-19T08:00:24.698Z,47.36
2018-09-19T08:01:24.632Z,46.21
2018-09-19T08:02:24.609Z,49.10
2018-09-19T08:03:24.587Z,47.46
2018-09-19T08:04:24.565Z,47.17
2018-09-19T08:05:24.536Z,46.69
2018-09-19T08:06:24.515Z,48.33
2018-09-19T08:07:24.490Z,46.50
2018-09-19T08:08:24.470Z,47.65
2018-09-19T08:09:24.449Z,51.60
2018-09-19T08:10:24.423Z,54.68
2018-09-19T08:11:24.399Z,53.43
2018-09-19T08:12:24.376Z,54.52
2018-09-19T08:13:25.092Z,55.77
2018-09-19T08:14:24.333Z,54.80
2018-09-19T08:15:24.307Z,55.77
2018-09-19T08:16:24.287Z,58.37
2018-09-19T08:17:24.264Z,57.31
2018-09-19T08:18:24.242Z,57.89
2018-09-19T08:19:24.221Z,58.08
2018-09-19T08:20:24.195Z,58.95
2018-09-19T08:21:24.175Z,58.56
2018-09-19T08:22:24.233Z,58.49
2018-09-19T08:23:24.131Z,58.49
2018-09-19T08:24:24.106Z,60.42
2018-09-19T08:25:24.083Z,62.54
2018-09-19T08:26:24.061Z,63.12
2018-09-19T08:27:24.044Z,61.87
2018-09-19T08:28:24.017Z,62.93
2018-09-19T08:29:24.001Z,62.35
2018-09-19T08:30:24.010Z,63.41
2018-09-19T08:31:23.948Z,65.66
2018-09-19T08:32:23.928Z,66.24
2018-09-19T08:33:23.906Z,67.40
2018-09-19T08:34:23.883Z,67.49
2018-09-19T08:35:23.863Z,66.72
2018-09-19T08:36:23.893Z,67.78
2018-09-19T08:37:23.824Z,67.97
2018-09-19T08:38:23.798Z,68.45
2018-09-19T08:39:23.778Z,69.23
2018-09-19T08:40:23.751Z,69.80
2018-09-19T08:41:23.735Z,69.64
2018-09-19T08:42:23.712Z,71.86
2018-09-19T08:43:23.687Z,70.61
2018-09-19T08:44:23.666Z,68.68
2018-09-19T08:45:23.643Z,69.55
2018-09-19T08:46:23.624Z,72.34
2018-09-19T08:47:23.601Z,73.31
2018-09-19T08:48:23.579Z,73.69
2018-09-19T08:49:23.560Z,74.76
2018-09-19T08:50:23.547Z,74.47
2018-09-19T08:51:23.515Z,73.69
2018-09-19T08:52:23.498Z,72.73
2018-09-19T08:53:23.469Z,75.09
2018-09-19T08:54:23.451Z,76.34
2018-09-19T08:55:23.429Z,78.17
2018-09-19T08:56:23.425Z,79.24
2018-09-19T08:57:23.385Z,78.56
2018-09-19T08:58:23.366Z,78.36
2018-09-19T08:59:23.352Z,76.92
2018-09-19T09:00:23.329Z,78.46
2018-09-19T09:01:23.302Z,78.85
2018-09-19T09:02:23.283Z,78.46
2018-09-19T09:03:23.260Z,77.88
2018-09-19T09:04:23.238Z,77.69
2018-09-19T09:05:23.238Z,79.17
2018-09-19T09:06:23.196Z,81.07
2018-09-19T09:07:23.174Z,81.84
2018-09-19T09:08:23.156Z,83.62
2018-09-19T09:09:23.133Z,83.62
2018-09-19T09:10:24.112Z,85.74
2018-09-19T09:11:23.088Z,85.12
2018-09-19T09:12:23.129Z,85.70
2018-09-19T09:13:23.055Z,86.32
2018-09-19T09:14:23.030Z,85.94
2018-09-19T09:15:23.023Z,84.10
2018-09-19T09:16:22.993Z,85.06
2018-09-19T09:17:22.971Z,87.38
2018-09-19T09:18:22.949Z,87.48
2018-09-19T09:19:22.926Z,88.35
2018-09-19T09:20:22.908Z,88.15
2018-09-19T09:21:22.887Z,88.73
2018-09-19T09:22:22.865Z,88.20
2018-09-19T09:23:22.845Z,88.39
2018-09-19T09:24:22.823Z,88.97
2018-09-19T09:25:22.803Z,90.33
2018-09-19T09:26:22.784Z,89.55
2018-09-19T09:27:22.809Z,90.23
2018-09-19T09:28:22.746Z,91.49
2018-09-19T09:29:22.729Z,91.97
2018-09-19T09:30:22.707Z,90.95
2018-09-19T09:31:22.684Z,91.72
2018-09-19T09:32:22.666Z,92.11
2018-09-19T09:33:22.640Z,93.27
2018-09-19T09:34:22.737Z,92.88
2018-09-19T09:35:22.604Z,93.27
2018-09-19T09:36:22.579Z,92.69
2018-09-19T09:37:22.563Z,93.41
2018-09-19T09:38:22.537Z,92.65
2018-09-19T09:39:22.525Z,92.83
2018-09-19T09:40:22.562Z,93.71
2018-09-19T09:41:22.480Z,95.54
2018-09-19T09:42:22.460Z,95.73
2018-09-19T09:43:22.490Z,95.59
2018-09-19T09:44:22.440Z,95.35
2018-09-19T09:45:22.399Z,94.96
2018-09-19T09:46:22.390Z,96.17
2018-09-19T09:47:22.361Z,96.65
2018-09-19T09:48:22.344Z,96.46
2018-09-19T09:49:22.333Z,96.65
2018-09-19T09:50:22.334Z,95.30
2018-09-19T09:51:22.313Z,95.59
2018-09-19T09:52:22.266Z,95.68
2018-09-19T09:53:22.268Z,96.17
2018-09-19T09:54:22.257Z,95.49
2018-09-19T09:55:23.122Z,95.78
2018-09-19T09:56:22.180Z,96.36
2018-09-19T09:57:22.169Z,96.07
2018-09-19T09:58:22.139Z,95.78
2018-09-19T09:59:22.122Z,95.78
2018-09-19T10:00:22.105Z,95.78
2018-09-19T10:01:22.084Z,96.02
2018-09-19T10:02:22.062Z,96.02
2018-09-19T10:03:22.043Z,96.02
2018-09-19T10:04:22.620Z,95.73
2018-09-19T10:05:22.002Z,95.10
2018-09-19T10:06:22.001Z,95.29
2018-09-19T10:07:21.964Z,95.01
2018-09-19T10:08:21.944Z,95.34
2018-09-19T10:09:21.924Z,95.64
2018-09-19T10:10:21.906Z,94.76
2018-09-19T10:11:21.885Z,93.94
2018-09-19T10:12:21.866Z,94.43
2018-09-19T10:13:21.847Z,94.33
2018-09-19T10:14:21.826Z,94.62
2018-09-19T10:15:21.809Z,94.71
2018-09-19T10:16:21.791Z,94.33
2018-09-19T10:17:21.769Z,93.79
2018-09-19T10:18:21.751Z,93.21
2018-09-19T10:19:21.730Z,92.83
2018-09-19T10:20:21.711Z,91.76
2018-09-19T10:21:21.692Z,92.05
2018-09-19T10:22:22.641Z,91.72
2018-09-19T10:23:21.653Z,91.82
2018-09-19T10:24:21.635Z,91.42
2018-09-19T10:25:21.614Z,91.72
2018-09-19T10:26:21.595Z,92.20
2018-09-19T10:27:21.574Z,92.73
2018-09-19T10:28:21.559Z,90.50
2018-09-19T10:29:21.534Z,89.44
2018-09-19T10:30:21.518Z,89.73
2018-09-19T10:31:21.500Z,89.44
2018-09-19T10:32:21.480Z,89.05
2018-09-19T10:33:21.459Z,88.47
2018-09-19T10:34:21.441Z,89.05
2018-09-19T10:35:21.463Z,88.95
2018-09-19T10:36:21.406Z,86.73
2018-09-19T10:37:21.387Z,87.16
2018-09-19T10:38:21.366Z,86.48
2018-09-19T10:39:21.344Z,86.68
2018-09-19T10:40:21.327Z,85.51
2018-09-19T10:41:21.307Z,83.77
2018-09-19T10:42:21.287Z,81.73
2018-09-19T10:43:21.296Z,82.12
2018-09-19T10:44:21.251Z,81.58
2018-09-19T10:45:21.231Z,80.96
2018-09-19T10:46:21.216Z,82.41
2018-09-19T10:47:22.133Z,82.12
2018-09-19T10:48:21.178Z,81.39
2018-09-19T10:49:21.161Z,79.74
2018-09-19T10:50:21.134Z,78.09
2018-09-19T10:51:21.117Z,78.58
2018-09-19T10:52:21.103Z,78.09
2018-09-19T10:53:21.083Z,79.16
2018-09-19T10:54:21.061Z,78.09
2018-09-19T10:55:21.044Z,79.25
2018-09-19T10:56:21.024Z,79.64
2018-09-19T10:57:21.006Z,79.60
2018-09-19T10:58:20.983Z,80.80
2018-09-19T10:59:20.971Z,79.22
2018-09-19T11:00:20.949Z,80.32
2018-09-19T11:01:20.982Z,80.03
2018-09-19T11:02:20.909Z,79.74
2018-09-19T11:03:20.892Z,79.55
2018-09-19T11:04:20.874Z,78.58
2018-09-19T11:05:20.857Z,78.29
2018-09-19T11:06:20.834Z,77.36
2018-09-19T11:07:20.816Z,76.58
2018-09-19T11:08:20.799Z,76.39
2018-09-19T11:09:20.779Z,76.45
2018-09-19T11:10:20.763Z,76.19
2018-09-19T11:11:20.743Z,75.42
2018-09-19T11:12:20.725Z,75.81
2018-09-19T11:13:20.703Z,75.90
2018-09-19T11:14:20.687Z,75.23
2018-09-19T11:15:20.668Z,75.51
2018-09-19T11:16:20.648Z,75.23
2018-09-19T11:17:20.632Z,75.19
2018-09-19T11:18:20.615Z,75.61
2018-09-19T11:19:20.592Z,74.45
2018-09-19T11:20:20.575Z,74.84
2018-09-19T11:21:20.559Z,74.49
2018-09-19T11:22:20.533Z,73.52
2018-09-19T11:23:20.519Z,73.52
2018-09-19T11:24:20.501Z,71.38
2018-09-19T11:25:20.484Z,70.80
2018-09-19T11:26:20.507Z,71.09
2018-09-19T11:27:20.446Z,71.77
2018-09-19T11:28:20.427Z,71.38
2018-09-19T11:29:20.409Z,69.93
2018-09-19T11:30:20.392Z,70.70
2018-09-19T11:31:20.372Z,69.57
2018-09-19T11:32:20.353Z,69.15
2018-09-19T11:33:20.336Z,69.76
2018-09-19T11:34:20.318Z,68.51
2018-09-19T11:35:20.300Z,67.63
2018-09-19T11:36:20.282Z,67.92
2018-09-19T11:37:20.262Z,67.54
2018-09-19T11:38:20.245Z,67.24
2018-09-19T11:39:20.227Z,68.02
2018-09-19T11:40:20.210Z,68.70
2018-09-19T11:41:20.197Z,68.41
2018-09-19T11:42:20.174Z,67.86
2018-09-19T11:43:20.190Z,67.08
2018-09-19T11:44:20.137Z,65.92
2018-09-19T11:45:20.121Z,64.56
2018-09-19T11:46:20.101Z,64.65
2018-09-19T11:47:20.084Z,65.24
2018-09-19T11:48:20.067Z,64.07
2018-09-19T11:49:20.052Z,65.24
2018-09-19T11:50:20.033Z,64.26
2018-09-19T11:51:20.013Z,64.75
2018-09-19T11:52:19.998Z,63.29
2018-09-19T11:53:19.984Z,63.68
2018-09-19T11:54:19.957Z,62.91
2018-09-19T11:55:19.942Z,63.10
2018-09-19T11:56:19.931Z,63.29
2018-09-19T11:57:19.907Z,63.59
2018-09-19T11:58:19.889Z,63.78
2018-09-19T11:59:19.869Z,63.29
2018-09-19T12:00:19.856Z,64.07
2018-09-19T12:01:19.842Z,63.10
2018-09-19T12:02:19.819Z,62.71
2018-09-19T12:03:19.998Z,61.16
2018-09-19T12:04:19.834Z,60.09
2018-09-19T12:05:19.765Z,61.16
2018-09-19T12:06:19.798Z,60.87
2018-09-19T12:07:19.827Z,59.80
2018-09-19T12:08:19.714Z,62.52
2018-09-19T12:09:19.693Z,59.51
2018-09-19T12:10:19.676Z,59.64
2018-09-19T12:11:19.659Z,61.97
2018-09-19T12:12:19.639Z,58.47
2018-09-19T12:13:19.622Z,59.92
2018-09-19T12:14:19.605Z,58.76
2018-09-19T12:15:19.586Z,60.02
2018-09-19T12:16:19.569Z,58.76
2018-09-19T12:17:19.553Z,58.18
2018-09-19T12:18:19.536Z,58.18
2018-09-19T12:19:19.552Z,58.67
2018-09-19T12:20:19.501Z,57.98
2018-09-19T12:21:19.483Z,57.60
2018-09-19T12:22:19.466Z,58.37
2018-09-19T12:23:19.453Z,57.79
2018-09-19T12:24:19.430Z,56.52
2018-09-19T12:25:19.413Z,56.14
2018-09-19T12:26:19.400Z,56.36
2018-09-19T12:27:19.375Z,56.56
2018-09-19T12:28:19.361Z,55.68
2018-09-19T12:29:19.343Z,54.90
2018-09-19T12:30:19.327Z,54.71
2018-09-19T12:31:19.326Z,55.00
2018-09-19T12:32:19.291Z,52.67
2018-09-19T12:33:19.281Z,54.42
2018-09-19T12:34:19.254Z,54.80
2018-09-19T12:35:19.239Z,53.74
2018-09-19T12:36:19.220Z,52.57
2018-09-19T12:37:19.203Z,52.86
2018-09-19T12:38:19.184Z,51.99
2018-09-19T12:39:19.167Z,52.47
2018-09-19T12:40:19.157Z,51.01
2018-09-19T12:41:19.221Z,50.92
2018-09-19T12:42:19.115Z,51.31
2018-09-19T12:43:19.098Z,51.21
2018-09-19T12:44:19.081Z,52.28
2018-09-19T12:45:19.062Z,52.28
2018-09-19T12:46:19.047Z,52.09
2018-09-19T12:47:19.028Z,53.25
2018-09-19T12:48:19.016Z,54.03
2018-09-19T12:49:18.993Z,54.42
2018-09-19T12:50:18.976Z,53.45
2018-09-19T12:51:18.961Z,53.83
2018-09-19T12:52:18.943Z,52.19
2018-09-19T12:53:18.947Z,51.70
2018-09-19T12:54:18.917Z,51.99
2018-09-19T12:55:18.890Z,52.37
2018-09-19T12:56:18.874Z,51.82
2018-09-19T12:57:18.856Z,52.11
2018-09-19T12:58:18.838Z,51.23
2018-09-19T12:59:18.821Z,50.75
2018-09-19T13:00:18.805Z,50.95
2018-09-19T13:01:18.791Z,51.33
2018-09-19T13:02:18.954Z,52.28
2018-09-19T13:03:18.752Z,52.01
2018-09-19T13:04:18.735Z,51.04
2018-09-19T13:05:18.717Z,50.85
2018-09-19T13:06:18.699Z,50.56
2018-09-19T13:07:19.669Z,49.68
2018-09-19T13:08:18.666Z,49.68
2018-09-19T13:09:18.647Z,49.68
2018-09-19T13:10:18.632Z,49.87
2018-09-19T13:11:18.614Z,50.36
2018-09-19T13:12:18.596Z,50.85
2018-09-19T13:13:18.580Z,50.56
2018-09-19T13:14:18.563Z,50.85
2018-09-19T13:15:18.547Z,50.95
2018-09-19T13:16:18.538Z,51.23